sensor_id;sensor_type;location;lat;lon;timestamp;pressure;altitude;pressure_sealevel;temperature;humidity
59435;BME280;45241;49.768;8.636;2023-08-06T00:01:58;99329.56;;;18.00;100.00
59435;BME280;45241;49.768;8.636;2023-08-06T00:04:23;99321.19;;;18.06;100.00
59435;BME280;45241;49.768;8.636;2023-08-06T00:06:49;99318.50;;;18.06;100.00
59435;BME280;45241;49.768;8.636;2023-08-06T00:09:14;99314.75;;;18.17;100.00
59435;BME280;45241;49.768;8.636;2023-08-06T00:11:39;99308.84;;;18.31;100.00
59435;BME280;45241;49.768;8.636;2023-08-06T00:14:06;99308.59;;;18.37;100.00
59435;BME280;45241;49.768;8.636;2023-08-06T00:16:31;99309.91;;;18.25;100.00
59435;BME280;45241;49.768;8.636;2023-08-06T00:18:56;99305.56;;;18.24;100.00
59435;BME280;45241;49.768;8.636;2023-08-06T00:21:22;99313.34;;;18.10;100.00
59435;BME280;45241;49.768;8.636;2023-08-06T00:23:47;99302.56;;;18.20;100.00
59435;BME280;45241;49.768;8.636;2023-08-06T00:26:12;99293.91;;;18.28;100.00
59435;BME280;45241;49.768;8.636;2023-08-06T00:28:38;99293.09;;;18.28;100.00
59435;BME280;45241;49.768;8.636;2023-08-06T00:31:03;99289.25;;;18.18;100.00
59435;BME280;45241;49.768;8.636;2023-08-06T00:33:28;99287.09;;;18.20;100.00
59435;BME280;45241;49.768;8.636;2023-08-06T00:35:53;99277.66;;;18.33;100.00
59435;BME280;45241;49.768;8.636;2023-08-06T00:38:19;99268.66;;;18.23;100.00
59435;BME280;45241;49.768;8.636;2023-08-06T00:40:44;99263.50;;;18.26;100.00
59435;BME280;45241;49.768;8.636;2023-08-06T00:43:09;99261.88;;;18.25;100.00
59435;BME280;45241;49.768;8.636;2023-08-06T00:45:36;99265.72;;;18.29;100.00
59435;BME280;45241;49.768;8.636;2023-08-06T00:48:04;99256.22;;;18.32;100.00
59435;BME280;45241;49.768;8.636;2023-08-06T00:50:29;99259.72;;;18.22;100.00
59435;BME280;45241;49.768;8.636;2023-08-06T00:52:55;99250.50;;;18.28;100.00
59435;BME280;45241;49.768;8.636;2023-08-06T00:55:21;99242.13;;;18.30;100.00
59435;BME280;45241;49.768;8.636;2023-08-06T00:57:47;99245.94;;;18.39;100.00
59435;BME280;45241;49.768;8.636;2023-08-06T01:00:12;99243.75;;;18.41;100.00
59435;BME280;45241;49.768;8.636;2023-08-06T01:02:38;99235.66;;;18.46;100.00
59435;BME280;45241;49.768;8.636;2023-08-06T01:05:04;99241.09;;;18.46;100.00
59435;BME280;45241;49.768;8.636;2023-08-06T01:07:51;99234.28;;;18.48;100.00
59435;BME280;45241;49.768;8.636;2023-08-06T01:13:48;99236.19;;;18.43;100.00
59435;BME280;45241;49.768;8.636;2023-08-06T01:16:17;99229.41;;;18.50;100.00
59435;BME280;45241;49.768;8.636;2023-08-06T01:18:43;99227.50;;;18.51;100.00
59435;BME280;45241;49.768;8.636;2023-08-06T01:21:12;99220.69;;;18.38;100.00
59435;BME280;45241;49.768;8.636;2023-08-06T01:23:38;99217.19;;;18.43;100.00
59435;BME280;45241;49.768;8.636;2023-08-06T01:26:12;99224.53;;;18.53;100.00
59435;BME280;45241;49.768;8.636;2023-08-06T01:31:39;99211.81;;;18.58;100.00
59435;BME280;45241;49.768;8.636;2023-08-06T01:34:09;99212.84;;;18.52;100.00
59435;BME280;45241;49.768;8.636;2023-08-06T01:36:36;99202.81;;;18.47;100.00
59435;BME280;45241;49.768;8.636;2023-08-06T01:39:01;99206.91;;;18.60;100.00
59435;BME280;45241;49.768;8.636;2023-08-06T01:41:27;99202.31;;;18.61;100.00
59435;BME280;45241;49.768;8.636;2023-08-06T01:43:52;99211.81;;;18.58;100.00
59435;BME280;45241;49.768;8.636;2023-08-06T01:46:17;99207.72;;;18.56;100.00
59435;BME280;45241;49.768;8.636;2023-08-06T01:48:43;99206.34;;;18.48;100.00
59435;BME280;45241;49.768;8.636;2023-08-06T01:51:08;99197.94;;;18.55;100.00
59435;BME280;45241;49.768;8.636;2023-08-06T01:53:33;99203.13;;;18.66;100.00
59435;BME280;45241;49.768;8.636;2023-08-06T01:55:59;99196.31;;;18.54;100.00
59435;BME280;45241;49.768;8.636;2023-08-06T01:58:24;99187.41;;;18.73;100.00
59435;BME280;45241;49.768;8.636;2023-08-06T02:00:49;99192.25;;;18.61;100.00
59435;BME280;45241;49.768;8.636;2023-08-06T02:03:15;99197.16;;;18.59;100.00
59435;BME280;45241;49.768;8.636;2023-08-06T02:05:40;99189.03;;;18.69;100.00
59435;BME280;45241;49.768;8.636;2023-08-06T02:08:06;99199.06;;;18.74;100.00
59435;BME280;45241;49.768;8.636;2023-08-06T02:10:31;99187.13;;;18.70;100.00
59435;BME280;45241;49.768;8.636;2023-08-06T02:12:56;99187.09;;;18.60;100.00
59435;BME280;45241;49.768;8.636;2023-08-06T02:15:22;99192.53;;;18.60;100.00
59435;BME280;45241;49.768;8.636;2023-08-06T02:17:47;99197.69;;;18.61;100.00
59435;BME280;45241;49.768;8.636;2023-08-06T02:20:12;99184.63;;;18.48;100.00
59435;BME280;45241;49.768;8.636;2023-08-06T02:22:37;99189.31;;;18.68;100.00
59435;BME280;45241;49.768;8.636;2023-08-06T02:25:03;99171.63;;;18.65;100.00
59435;BME280;45241;49.768;8.636;2023-08-06T02:27:28;99180.31;;;18.57;100.00
59435;BME280;45241;49.768;8.636;2023-08-06T02:29:53;99173.50;;;18.55;100.00
59435;BME280;45241;49.768;8.636;2023-08-06T02:32:19;99171.59;;;18.40;100.00
59435;BME280;45241;49.768;8.636;2023-08-06T02:34:44;99175.97;;;18.46;100.00
59435;BME280;45241;49.768;8.636;2023-08-06T02:37:10;99160.47;;;18.52;100.00
59435;BME280;45241;49.768;8.636;2023-08-06T02:39:35;99162.91;;;18.33;100.00
59435;BME280;45241;49.768;8.636;2023-08-06T02:42:05;99160.22;;;18.48;100.00
59435;BME280;45241;49.768;8.636;2023-08-06T02:44:30;99156.94;;;18.41;100.00
59435;BME280;45241;49.768;8.636;2023-08-06T02:46:55;99149.34;;;18.38;100.00
59435;BME280;45241;49.768;8.636;2023-08-06T02:49:21;99153.13;;;18.32;100.00
59435;BME280;45241;49.768;8.636;2023-08-06T02:51:46;99152.88;;;18.38;100.00
59435;BME280;45241;49.768;8.636;2023-08-06T02:54:11;99145.78;;;18.27;100.00
59435;BME280;45241;49.768;8.636;2023-08-06T02:56:37;99144.69;;;18.23;100.00
59435;BME280;45241;49.768;8.636;2023-08-06T02:59:02;99139.22;;;18.13;100.00
59435;BME280;45241;49.768;8.636;2023-08-06T03:01:27;99145.19;;;18.05;100.00
59435;BME280;45241;49.768;8.636;2023-08-06T03:03:53;99142.22;;;18.06;100.00
59435;BME280;45241;49.768;8.636;2023-08-06T03:06:19;99141.41;;;18.06;100.00
59435;BME280;45241;49.768;8.636;2023-08-06T03:08:44;99139.50;;;18.11;100.00
59435;BME280;45241;49.768;8.636;2023-08-06T03:11:09;99150.31;;;18.01;100.00
59435;BME280;45241;49.768;8.636;2023-08-06T03:13:35;99145.50;;;18.18;100.00
59435;BME280;45241;49.768;8.636;2023-08-06T03:16:00;99144.34;;;17.99;100.00
59435;BME280;45241;49.768;8.636;2023-08-06T03:18:26;99137.59;;;18.12;100.00
59435;BME280;45241;49.768;8.636;2023-08-06T03:20:51;99136.28;;;18.19;100.00
59435;BME280;45241;49.768;8.636;2023-08-06T03:23:17;99132.19;;;18.07;100.00
59435;BME280;45241;49.768;8.636;2023-08-06T03:25:43;99135.75;;;18.17;100.00
59435;BME280;45241;49.768;8.636;2023-08-06T03:28:08;99129.47;;;18.12;100.00
59435;BME280;45241;49.768;8.636;2023-08-06T03:30:33;99125.69;;;18.13;100.00
59435;BME280;45241;49.768;8.636;2023-08-06T03:32:59;99129.47;;;18.07;100.00
59435;BME280;45241;49.768;8.636;2023-08-06T03:35:24;99133.03;;;18.23;100.00
59435;BME280;45241;49.768;8.636;2023-08-06T03:37:49;99127.84;;;18.06;100.00
59435;BME280;45241;49.768;8.636;2023-08-06T03:40:15;99122.19;;;18.17;100.00
59435;BME280;45241;49.768;8.636;2023-08-06T03:42:40;99119.97;;;18.14;100.00
59435;BME280;45241;49.768;8.636;2023-08-06T03:45:06;99119.97;;;18.14;100.00
59435;BME280;45241;49.768;8.636;2023-08-06T03:47:32;99115.38;;;18.15;100.00
59435;BME280;45241;49.768;8.636;2023-08-06T03:49:57;99119.69;;;18.01;100.00
59435;BME280;45241;49.768;8.636;2023-08-06T03:52:23;99110.69;;;17.85;100.00
59435;BME280;45241;49.768;8.636;2023-08-06T03:54:48;99118.88;;;18.05;100.00
59435;BME280;45241;49.768;8.636;2023-08-06T03:57:13;99118.28;;;17.88;100.00
59435;BME280;45241;49.768;8.636;2023-08-06T03:59:39;99114.53;;;17.94;100.00
59435;BME280;45241;49.768;8.636;2023-08-06T04:02:04;99123.19;;;17.96;100.00
59435;BME280;45241;49.768;8.636;2023-08-06T04:04:29;99124.50;;;17.88;100.00
59435;BME280;45241;49.768;8.636;2023-08-06T04:06:54;99131.81;;;17.83;100.00
59435;BME280;45241;49.768;8.636;2023-08-06T04:09:20;99124.72;;;17.77;100.00
59435;BME280;45241;49.768;8.636;2023-08-06T04:11:45;99129.56;;;17.70;100.00
59435;BME280;45241;49.768;8.636;2023-08-06T04:14:10;99121.78;;;17.78;100.00
59435;BME280;45241;49.768;8.636;2023-08-06T04:16:36;99120.25;;;17.50;100.00
59435;BME280;45241;49.768;8.636;2023-08-06T04:19:01;99124.63;;;17.56;100.00
59435;BME280;45241;49.768;8.636;2023-08-06T04:21:26;99118.78;;;17.27;100.00
59435;BME280;45241;49.768;8.636;2023-08-06T04:23:52;99132.41;;;17.43;100.00
59435;BME280;45241;49.768;8.636;2023-08-06T04:26:17;99132.63;;;17.36;100.00
59435;BME280;45241;49.768;8.636;2023-08-06T04:28:42;99130.91;;;17.15;100.00
59435;BME280;45241;49.768;8.636;2023-08-06T04:31:07;99132.75;;;17.51;100.00
59435;BME280;45241;49.768;8.636;2023-08-06T04:33:33;99132.00;;;17.19;100.00
59435;BME280;45241;49.768;8.636;2023-08-06T04:35:59;99139.03;;;17.20;100.00
59435;BME280;45241;49.768;8.636;2023-08-06T04:38:25;99131.72;;;17.15;100.00
59435;BME280;45241;49.768;8.636;2023-08-06T04:40:50;99130.19;;;17.29;100.00
59435;BME280;45241;49.768;8.636;2023-08-06T04:43:16;99132.03;;;17.24;100.00
59435;BME280;45241;49.768;8.636;2023-08-06T04:45:48;99125.56;;;17.25;100.00
59435;BME280;45241;49.768;8.636;2023-08-06T04:48:14;99125.91;;;17.39;100.00
59435;BME280;45241;49.768;8.636;2023-08-06T04:50:46;99127.75;;;17.33;100.00
59435;BME280;45241;49.768;8.636;2023-08-06T04:53:12;99125.19;;;17.63;100.00
59435;BME280;45241;49.768;8.636;2023-08-06T04:55:37;99127.22;;;17.36;100.00
59435;BME280;45241;49.768;8.636;2023-08-06T04:58:03;99128.91;;;17.42;100.00
59435;BME280;45241;49.768;8.636;2023-08-06T05:00:28;99136.22;;;17.42;100.00
59435;BME280;45241;49.768;8.636;2023-08-06T05:02:54;99126.13;;;17.37;100.00
59435;BME280;45241;49.768;8.636;2023-08-06T05:05:19;99127.19;;;17.31;100.00
59435;BME280;45241;49.768;8.636;2023-08-06T05:07:48;99139.09;;;17.25;100.00
59435;BME280;45241;49.768;8.636;2023-08-06T05:10:13;99137.84;;;17.00;100.00
59435;BME280;45241;49.768;8.636;2023-08-06T05:12:38;99143.91;;;17.18;100.00
59435;BME280;45241;49.768;8.636;2023-08-06T05:15:04;99133.72;;;17.35;100.00
59435;BME280;45241;49.768;8.636;2023-08-06T05:17:30;99130.56;;;17.06;100.00
59435;BME280;45241;49.768;8.636;2023-08-06T05:19:55;99135.06;;;17.32;100.00
59435;BME280;45241;49.768;8.636;2023-08-06T05:22:20;99140.56;;;17.00;100.00
59435;BME280;45241;49.768;8.636;2023-08-06T05:24:45;99141.66;;;17.05;100.00
59435;BME280;45241;49.768;8.636;2023-08-06T05:27:11;99141.19;;;17.13;100.00
59435;BME280;45241;49.768;8.636;2023-08-06T05:29:36;99143.44;;;17.26;100.00
59435;BME280;45241;49.768;8.636;2023-08-06T05:32:01;99140.13;;;17.19;100.00
59435;BME280;45241;49.768;8.636;2023-08-06T05:34:27;99143.25;;;17.00;100.00
59435;BME280;45241;49.768;8.636;2023-08-06T05:36:52;99140.09;;;17.14;100.00
59435;BME280;45241;49.768;8.636;2023-08-06T05:39:18;99139.50;;;17.07;100.00
59435;BME280;45241;49.768;8.636;2023-08-06T05:41:43;99143.03;;;17.07;100.00
59435;BME280;45241;49.768;8.636;2023-08-06T05:44:08;99137.41;;;17.14;100.00
59435;BME280;45241;49.768;8.636;2023-08-06T05:46:33;99149.31;;;17.13;100.00
59435;BME280;45241;49.768;8.636;2023-08-06T05:48:59;99153.75;;;16.97;100.00
59435;BME280;45241;49.768;8.636;2023-08-06T05:51:26;99161.31;;;16.90;100.00
59435;BME280;45241;49.768;8.636;2023-08-06T05:53:51;99157.72;;;16.84;100.00
59435;BME280;45241;49.768;8.636;2023-08-06T05:56:16;99161.25;;;16.85;100.00
59435;BME280;45241;49.768;8.636;2023-08-06T05:58:42;99160.94;;;16.81;100.00
59435;BME280;45241;49.768;8.636;2023-08-06T06:01:07;99157.78;;;16.62;100.00
59435;BME280;45241;49.768;8.636;2023-08-06T06:03:32;99156.63;;;17.12;100.00
59435;BME280;45241;49.768;8.636;2023-08-06T06:06:00;99150.78;;;16.98;100.00
59435;BME280;45241;49.768;8.636;2023-08-06T06:08:26;99158.31;;;16.86;100.00
59435;BME280;45241;49.768;8.636;2023-08-06T06:10:51;99151.72;;;16.77;100.00
59435;BME280;45241;49.768;8.636;2023-08-06T06:13:16;99148.44;;;17.07;100.00
59435;BME280;45241;49.768;8.636;2023-08-06T06:15:42;99159.56;;;17.11;100.00
59435;BME280;45241;49.768;8.636;2023-08-06T06:18:07;99155.47;;;17.08;100.00
59435;BME280;45241;49.768;8.636;2023-08-06T06:20:32;99162.94;;;16.91;100.00
59435;BME280;45241;49.768;8.636;2023-08-06T06:22:58;99152.75;;;17.03;100.00
59435;BME280;45241;49.768;8.636;2023-08-06T06:25:24;99168.13;;;16.97;100.00
59435;BME280;45241;49.768;8.636;2023-08-06T06:27:49;99170.50;;;16.89;100.00
59435;BME280;45241;49.768;8.636;2023-08-06T06:30:14;99161.00;;;16.86;100.00
59435;BME280;45241;49.768;8.636;2023-08-06T06:32:39;99165.84;;;16.84;100.00
59435;BME280;45241;49.768;8.636;2023-08-06T06:35:06;99178.09;;;16.92;100.00
59435;BME280;45241;49.768;8.636;2023-08-06T06:37:31;99177.28;;;16.91;100.00
59435;BME280;45241;49.768;8.636;2023-08-06T06:39:56;99177.53;;;16.90;100.00
59435;BME280;45241;49.768;8.636;2023-08-06T06:42:22;99176.72;;;16.89;100.00
59435;BME280;45241;49.768;8.636;2023-08-06T06:44:48;99167.41;;;16.75;100.00
59435;BME280;45241;49.768;8.636;2023-08-06T06:47:13;99169.78;;;16.71;100.00
59435;BME280;45241;49.768;8.636;2023-08-06T06:49:38;99170.28;;;16.68;100.00
59435;BME280;45241;49.768;8.636;2023-08-06T06:52:04;99170.34;;;17.00;100.00
59435;BME280;45241;49.768;8.636;2023-08-06T06:54:30;99163.88;;;17.07;100.00
59435;BME280;45241;49.768;8.636;2023-08-06T06:56:55;99166.22;;;17.35;100.00
59435;BME280;45241;49.768;8.636;2023-08-06T06:59:20;99161.44;;;16.73;100.00
59435;BME280;45241;49.768;8.636;2023-08-06T07:01:45;99166.63;;;17.12;100.00
59435;BME280;45241;49.768;8.636;2023-08-06T07:04:11;99170.25;;;16.90;100.00
59435;BME280;45241;49.768;8.636;2023-08-06T07:06:36;99167.63;;;17.00;100.00
59435;BME280;45241;49.768;8.636;2023-08-06T07:09:04;99166.19;;;17.30;100.00
59435;BME280;45241;49.768;8.636;2023-08-06T07:11:29;99164.97;;;17.11;100.00
59435;BME280;45241;49.768;8.636;2023-08-06T07:13:58;99172.09;;;17.22;100.00
59435;BME280;45241;49.768;8.636;2023-08-06T07:16:25;99163.34;;;16.72;100.00
59435;BME280;45241;49.768;8.636;2023-08-06T07:18:54;99174.13;;;16.99;100.00
59435;BME280;45241;49.768;8.636;2023-08-06T07:21:19;99179.22;;;16.96;100.00
59435;BME280;45241;49.768;8.636;2023-08-06T07:23:45;99174.22;;;16.56;100.00
59435;BME280;45241;49.768;8.636;2023-08-06T07:26:11;99174.06;;;16.94;100.00
59435;BME280;45241;49.768;8.636;2023-08-06T07:28:36;99174.41;;;17.03;100.00
59435;BME280;45241;49.768;8.636;2023-08-06T07:31:03;99182.19;;;16.94;100.00
59435;BME280;45241;49.768;8.636;2023-08-06T07:33:28;99181.28;;;16.84;100.00
59435;BME280;45241;49.768;8.636;2023-08-06T07:35:54;99184.84;;;16.89;100.00
59435;BME280;45241;49.768;8.636;2023-08-06T07:38:19;99180.19;;;16.85;100.00
59435;BME280;45241;49.768;8.636;2023-08-06T07:40:45;99178.56;;;16.84;100.00
59435;BME280;45241;49.768;8.636;2023-08-06T07:43:10;99179.09;;;16.81;100.00
59435;BME280;45241;49.768;8.636;2023-08-06T07:45:36;99184.47;;;16.76;100.00
59435;BME280;45241;49.768;8.636;2023-08-06T07:48:02;99195.72;;;16.94;100.00
59435;BME280;45241;49.768;8.636;2023-08-06T07:50:27;99180.78;;;16.60;100.00
59435;BME280;45241;49.768;8.636;2023-08-06T07:52:53;99181.06;;;16.90;100.00
59435;BME280;45241;49.768;8.636;2023-08-06T07:55:18;99180.47;;;17.20;100.00
59435;BME280;45241;49.768;8.636;2023-08-06T07:57:43;99176.66;;;16.84;100.00
59435;BME280;45241;49.768;8.636;2023-08-06T08:00:09;99177.47;;;17.12;100.00
59435;BME280;45241;49.768;8.636;2023-08-06T08:02:34;99175.66;;;17.27;100.00
59435;BME280;45241;49.768;8.636;2023-08-06T08:05:00;99169.66;;;17.20;100.00
59435;BME280;45241;49.768;8.636;2023-08-06T08:07:25;99166.09;;;17.15;100.00
59435;BME280;45241;49.768;8.636;2023-08-06T08:09:53;99162.22;;;17.43;100.00
59435;BME280;45241;49.768;8.636;2023-08-06T08:12:18;99163.78;;;17.33;100.00
59435;BME280;45241;49.768;8.636;2023-08-06T08:14:43;99171.63;;;17.35;100.00
59435;BME280;45241;49.768;8.636;2023-08-06T08:17:10;99168.22;;;17.50;100.00
59435;BME280;45241;49.768;8.636;2023-08-06T08:19:36;99161.97;;;17.49;100.00
59435;BME280;45241;49.768;8.636;2023-08-06T08:22:01;99166.41;;;17.66;100.00
59435;BME280;45241;49.768;8.636;2023-08-06T08:24:26;99158.41;;;17.86;100.00
59435;BME280;45241;49.768;8.636;2023-08-06T08:26:52;99153.03;;;18.01;100.00
59435;BME280;45241;49.768;8.636;2023-08-06T08:29:21;99143.53;;;17.99;100.00
59435;BME280;45241;49.768;8.636;2023-08-06T08:31:46;99154.06;;;17.85;100.00
59435;BME280;45241;49.768;8.636;2023-08-06T08:34:15;99148.13;;;17.98;100.00
59435;BME280;45241;49.768;8.636;2023-08-06T08:36:40;99142.03;;;17.66;100.00
59435;BME280;45241;49.768;8.636;2023-08-06T08:39:05;99143.09;;;17.65;100.00
59435;BME280;45241;49.768;8.636;2023-08-06T08:41:31;99145.50;;;17.61;100.00
59435;BME280;45241;49.768;8.636;2023-08-06T08:43:59;99142.16;;;17.91;100.00
59435;BME280;45241;49.768;8.636;2023-08-06T08:46:29;99142.78;;;18.18;100.00
59435;BME280;45241;49.768;8.636;2023-08-06T08:48:56;99140.91;;;18.19;100.00
59435;BME280;45241;49.768;8.636;2023-08-06T08:51:23;99140.34;;;18.17;100.00
59435;BME280;45241;49.768;8.636;2023-08-06T08:53:49;99130.34;;;18.33;100.00
59435;BME280;45241;49.768;8.636;2023-08-06T08:56:16;99126.81;;;18.37;100.00
59435;BME280;45241;49.768;8.636;2023-08-06T08:58:41;99122.78;;;18.55;100.00
59435;BME280;45241;49.768;8.636;2023-08-06T09:01:07;99123.84;;;18.64;100.00
59435;BME280;45241;49.768;8.636;2023-08-06T09:03:34;99120.88;;;18.66;100.00
59435;BME280;45241;49.768;8.636;2023-08-06T09:06:01;99115.97;;;18.78;100.00
59435;BME280;45241;49.768;8.636;2023-08-06T09:08:33;99117.91;;;18.88;100.00
59435;BME280;45241;49.768;8.636;2023-08-06T09:11:00;99118.69;;;18.78;100.00
59435;BME280;45241;49.768;8.636;2023-08-06T09:13:26;99117.66;;;18.89;100.00
59435;BME280;45241;49.768;8.636;2023-08-06T09:15:52;99115.97;;;18.78;100.00
59435;BME280;45241;49.768;8.636;2023-08-06T09:18:25;99117.09;;;18.92;100.00
59435;BME280;45241;49.768;8.636;2023-08-06T09:20:52;99121.72;;;18.87;100.00
59435;BME280;45241;49.768;8.636;2023-08-06T09:23:17;99110.56;;;18.58;100.00
59435;BME280;45241;49.768;8.636;2023-08-06T09:25:42;99117.84;;;18.27;100.00
59435;BME280;45241;49.768;8.636;2023-08-06T09:28:08;99119.50;;;18.38;100.00
59435;BME280;45241;49.768;8.636;2023-08-06T09:30:35;99113.78;;;18.24;100.00
59435;BME280;45241;49.768;8.636;2023-08-06T09:33:01;99116.22;;;18.20;100.00
59435;BME280;45241;49.768;8.636;2023-08-06T09:35:31;99113.97;;;18.02;100.00
59435;BME280;45241;49.768;8.636;2023-08-06T09:38:06;99116.75;;;18.23;100.00
59435;BME280;45241;49.768;8.636;2023-08-06T09:40:36;99125.44;;;18.25;100.00
59435;BME280;45241;49.768;8.636;2023-08-06T09:43:02;99114.03;;;18.28;100.00
59435;BME280;45241;49.768;8.636;2023-08-06T09:45:35;99113.19;;;18.12;100.00
59435;BME280;45241;49.768;8.636;2023-08-06T09:48:06;99112.47;;;18.42;100.00
59435;BME280;45241;49.768;8.636;2023-08-06T09:50:33;99108.38;;;18.55;100.00
59435;BME280;45241;49.768;8.636;2023-08-06T09:53:00;99105.94;;;18.63;100.00
59435;BME280;45241;49.768;8.636;2023-08-06T09:55:26;99110.28;;;18.74;100.00
59435;BME280;45241;49.768;8.636;2023-08-06T09:57:53;99105.97;;;18.78;100.00
59435;BME280;45241;49.768;8.636;2023-08-06T10:00:19;99114.91;;;18.69;100.00
59435;BME280;45241;49.768;8.636;2023-08-06T10:02:45;99110.56;;;18.73;100.00
59435;BME280;45241;49.768;8.636;2023-08-06T10:05:11;99109.75;;;18.62;100.00
59435;BME280;45241;49.768;8.636;2023-08-06T10:07:36;99101.03;;;18.40;100.00
59435;BME280;45241;49.768;8.636;2023-08-06T10:10:04;99127.03;;;18.05;100.00
59435;BME280;45241;49.768;8.636;2023-08-06T10:12:34;99117.31;;;18.35;100.00
59435;BME280;45241;49.768;8.636;2023-08-06T10:15:02;99121.56;;;18.00;100.00
59435;BME280;45241;49.768;8.636;2023-08-06T10:17:28;99126.78;;;18.22;100.00
59435;BME280;45241;49.768;8.636;2023-08-06T10:19:55;99131.34;;;18.01;100.00
59435;BME280;45241;49.768;8.636;2023-08-06T10:22:21;99130.50;;;17.96;100.00
59435;BME280;45241;49.768;8.636;2023-08-06T10:24:53;99131.63;;;18.10;100.00
59435;BME280;45241;49.768;8.636;2023-08-06T10:27:29;99136.56;;;18.18;100.00
59435;BME280;45241;49.768;8.636;2023-08-06T10:30:09;99124.59;;;18.14;100.00
59435;BME280;45241;49.768;8.636;2023-08-06T10:32:46;99131.94;;;18.18;100.00
59435;BME280;45241;49.768;8.636;2023-08-06T10:35:28;99135.47;;;18.24;100.00
59435;BME280;45241;49.768;8.636;2023-08-06T10:37:58;99139.59;;;18.42;100.00
59435;BME280;45241;49.768;8.636;2023-08-06T10:40:23;99137.09;;;18.25;100.00
59435;BME280;45241;49.768;8.636;2023-08-06T10:42:49;99129.84;;;18.56;100.00
59435;BME280;45241;49.768;8.636;2023-08-06T10:45:17;99135.22;;;18.41;100.00
59435;BME280;45241;49.768;8.636;2023-08-06T10:47:43;99130.31;;;18.28;100.00
59435;BME280;45241;49.768;8.636;2023-08-06T10:50:12;99136.88;;;18.47;100.00
59435;BME280;45241;49.768;8.636;2023-08-06T10:52:38;99144.34;;;17.94;100.00
59435;BME280;45241;49.768;8.636;2023-08-06T10:55:04;99154.66;;;17.50;100.00
59435;BME280;45241;49.768;8.636;2023-08-06T10:57:30;99170.44;;;17.58;100.00
59435;BME280;45241;49.768;8.636;2023-08-06T10:59:55;99177.13;;;17.40;100.00
59435;BME280;45241;49.768;8.636;2023-08-06T11:02:20;99173.41;;;17.56;100.00
59435;BME280;45241;49.768;8.636;2023-08-06T11:04:46;99169.34;;;17.59;100.00
59435;BME280;45241;49.768;8.636;2023-08-06T11:07:13;99175.88;;;17.63;100.00
59435;BME280;45241;49.768;8.636;2023-08-06T11:09:38;99175.66;;;17.70;100.00
59435;BME280;45241;49.768;8.636;2023-08-06T11:12:09;99176.88;;;17.99;100.00
59435;BME280;45241;49.768;8.636;2023-08-06T11:14:35;99186.63;;;17.90;100.00
59435;BME280;45241;49.768;8.636;2023-08-06T11:17:00;99183.75;;;18.17;100.00
59435;BME280;45241;49.768;8.636;2023-08-06T11:19:26;99176.00;;;17.78;100.00
59435;BME280;45241;49.768;8.636;2023-08-06T11:21:51;99185.66;;;17.69;100.00
59435;BME280;45241;49.768;8.636;2023-08-06T11:24:17;99185.25;;;17.87;100.00
59435;BME280;45241;49.768;8.636;2023-08-06T11:26:42;99195.59;;;17.96;100.00
59435;BME280;45241;49.768;8.636;2023-08-06T11:29:09;99196.94;;;17.93;100.00
59435;BME280;45241;49.768;8.636;2023-08-06T11:31:36;99210.81;;;18.07;100.00
59435;BME280;45241;49.768;8.636;2023-08-06T11:34:01;99218.03;;;17.86;100.00
59435;BME280;45241;49.768;8.636;2023-08-06T11:36:34;99222.81;;;17.69;100.00
59435;BME280;45241;49.768;8.636;2023-08-06T11:39:02;99236.72;;;17.45;100.00
59435;BME280;45241;49.768;8.636;2023-08-06T11:41:29;99240.84;;;17.16;100.00
59435;BME280;45241;49.768;8.636;2023-08-06T11:43:55;99248.25;;;17.25;100.00
59435;BME280;45241;49.768;8.636;2023-08-06T11:46:20;99258.81;;;17.27;100.00
59435;BME280;45241;49.768;8.636;2023-08-06T11:51:17;99243.56;;;17.16;100.00
59435;BME280;45241;49.768;8.636;2023-08-06T11:53:48;99250.00;;;17.47;100.00
59435;BME280;45241;49.768;8.636;2023-08-06T11:56:14;99245.72;;;17.14;100.00
59435;BME280;45241;49.768;8.636;2023-08-06T11:58:41;99256.84;;;17.54;100.00
59435;BME280;45241;49.768;8.636;2023-08-06T12:01:06;99262.28;;;17.54;100.00
59435;BME280;45241;49.768;8.636;2023-08-06T12:03:32;99268.28;;;17.61;100.00
59435;BME280;45241;49.768;8.636;2023-08-06T12:05:57;99272.31;;;17.54;100.00
59435;BME280;45241;49.768;8.636;2023-08-06T12:08:26;99267.06;;;17.42;100.00
59435;BME280;45241;49.768;8.636;2023-08-06T12:10:52;99273.59;;;17.46;100.00
59435;BME280;45241;49.768;8.636;2023-08-06T12:13:19;99281.22;;;17.17;100.00
59435;BME280;45241;49.768;8.636;2023-08-06T12:15:44;99275.63;;;17.29;100.00
59435;BME280;45241;49.768;8.636;2023-08-06T12:18:10;99288.75;;;17.47;100.00
59435;BME280;45241;49.768;8.636;2023-08-06T12:20:35;99273.66;;;17.24;100.00
59435;BME280;45241;49.768;8.636;2023-08-06T12:23:01;99286.91;;;17.21;100.00
59435;BME280;45241;49.768;8.636;2023-08-06T12:25:26;99288.19;;;17.40;100.00
59435;BME280;45241;49.768;8.636;2023-08-06T12:27:51;99289.81;;;17.41;100.00
59435;BME280;45241;49.768;8.636;2023-08-06T12:30:17;99297.88;;;17.36;100.00
59435;BME280;45241;49.768;8.636;2023-08-06T12:32:42;99300.41;;;17.48;100.00
59435;BME280;45241;49.768;8.636;2023-08-06T12:35:08;99308.25;;;17.44;100.00
59435;BME280;45241;49.768;8.636;2023-08-06T12:37:34;99314.13;;;17.36;100.00
59435;BME280;45241;49.768;8.636;2023-08-06T12:39:59;99303.91;;;17.43;100.00
59435;BME280;45241;49.768;8.636;2023-08-06T12:42:25;99307.72;;;17.47;100.00
59435;BME280;45241;49.768;8.636;2023-08-06T12:44:51;99324.59;;;17.54;100.00
59435;BME280;45241;49.768;8.636;2023-08-06T12:47:17;99329.97;;;17.49;100.00
59435;BME280;45241;49.768;8.636;2023-08-06T12:49:42;99336.50;;;17.53;100.00
59435;BME280;45241;49.768;8.636;2023-08-06T12:52:08;99330.47;;;17.46;100.00
59435;BME280;45241;49.768;8.636;2023-08-06T12:54:34;99341.03;;;17.43;100.00